CheckWX is a tool to help pilots better visualize weather data.  It is not intended as a substitute for an official pre-flight weather briefing.

07:56:53 UTC

KWWR TAF
West Woodward Airport
Woodward, Oklahoma, USA
KWWR 200520Z 2006/2106 VRB04KT P6SM FEW250 FM201400 19014KT P6SM SCT050

Jun-20@
06:00 UTC

Jun-20 @ 06:00 UTC

Jun-20@
14:00 UTC

Jun-20 @ 14:00 UTC

KWWR 200520Z 2006/2106 VRB04KT P6SM FEW250
Wind
  • Variable at 4 KTS
Cloud Levels
  • Few at 25,000' AGL

Jun-20@
14:00 UTC

Jun-20 @ 14:00 UTC

Jun-21@
06:00 UTC

Jun-21 @ 06:00 UTC

FM201400 19014KT P6SM SCT050

From

From Standard forecast or significant change

Wind
  • 190° at 14 KTS
Cloud Levels
  • Scattered at 5,000' AGL